sensor_id;sensor_type;location;lat;lon;timestamp;pressure;altitude;pressure_sealevel;temperature;humidity
73700;BME280;62005;50.082;8.988;2022-08-19T00:01:44;99977.34;;;21.68;64.32
73700;BME280;62005;50.082;8.988;2022-08-19T00:04:11;99989.97;;;21.69;64.62
73700;BME280;62005;50.082;8.988;2022-08-19T00:06:39;99975.31;;;21.60;64.86
73700;BME280;62005;50.082;8.988;2022-08-19T00:09:06;99986.69;;;21.67;64.88
73700;BME280;62005;50.082;8.988;2022-08-19T00:11:33;99968.16;;;21.59;64.61
73700;BME280;62005;50.082;8.988;2022-08-19T00:14:03;99968.38;;;21.62;64.48
73700;BME280;62005;50.082;8.988;2022-08-19T00:16:29;99968.38;;;21.62;64.77
73700;BME280;62005;50.082;8.988;2022-08-19T00:18:54;99974.69;;;21.63;64.46
73700;BME280;62005;50.082;8.988;2022-08-19T00:21:24;99979.28;;;21.67;64.84
73700;BME280;62005;50.082;8.988;2022-08-19T00:23:50;99968.56;;;21.66;64.83
73700;BME280;62005;50.082;8.988;2022-08-19T00:26:15;99970.19;;;21.67;64.82
73700;BME280;62005;50.082;8.988;2022-08-19T00:28:40;99938.81;;;21.54;64.98
73700;BME280;62005;50.082;8.988;2022-08-19T00:31:08;99963.59;;;21.68;65.06
73700;BME280;62005;50.082;8.988;2022-08-19T00:33:34;99953.19;;;21.65;64.70
73700;BME280;62005;50.082;8.988;2022-08-19T00:36:01;99944.31;;;21.68;64.91
73700;BME280;62005;50.082;8.988;2022-08-19T00:38:30;99947.06;;;21.68;64.84
73700;BME280;62005;50.082;8.988;2022-08-19T00:40:55;99931.28;;;21.60;64.93
73700;BME280;62005;50.082;8.988;2022-08-19T00:43:23;99953.09;;;21.70;64.89
73700;BME280;62005;50.082;8.988;2022-08-19T00:45:49;99936.78;;;21.60;64.82
73700;BME280;62005;50.082;8.988;2022-08-19T00:48:17;99956.66;;;21.70;64.66
73700;BME280;62005;50.082;8.988;2022-08-19T00:50:44;99939.03;;;21.58;64.76
73700;BME280;62005;50.082;8.988;2022-08-19T00:53:16;99958.59;;;21.70;64.64
73700;BME280;62005;50.082;8.988;2022-08-19T00:55:49;99947.59;;;21.70;64.43
73700;BME280;62005;50.082;8.988;2022-08-19T00:58:22;99941.47;;;21.73;64.54
73700;BME280;62005;50.082;8.988;2022-08-19T01:00:49;99935.44;;;21.71;64.10
73700;BME280;62005;50.082;8.988;2022-08-19T01:03:17;99933.75;;;21.75;64.41
73700;BME280;62005;50.082;8.988;2022-08-19T01:05:44;99922.31;;;21.68;64.13
73700;BME280;62005;50.082;8.988;2022-08-19T01:08:10;99908.66;;;21.63;64.02
73700;BME280;62005;50.082;8.988;2022-08-19T01:10:43;99914.16;;;21.63;64.39
73700;BME280;62005;50.082;8.988;2022-08-19T01:13:10;99914.16;;;21.63;63.91
73700;BME280;62005;50.082;8.988;2022-08-19T01:15:42;99918.13;;;21.57;64.39
73700;BME280;62005;50.082;8.988;2022-08-19T01:18:11;99937.19;;;21.67;63.87
73700;BME280;62005;50.082;8.988;2022-08-19T01:20:37;99940.22;;;21.65;64.03
73700;BME280;62005;50.082;8.988;2022-08-19T01:23:03;99921.91;;;21.61;64.11
73700;BME280;62005;50.082;8.988;2022-08-19T01:25:34;99923.03;;;21.60;64.21
73700;BME280;62005;50.082;8.988;2022-08-19T01:28:00;99919.47;;;21.59;63.98
73700;BME280;62005;50.082;8.988;2022-08-19T01:30:31;99929.84;;;21.62;63.87
73700;BME280;62005;50.082;8.988;2022-08-19T01:32:57;99921.81;;;21.66;63.81
73700;BME280;62005;50.082;8.988;2022-08-19T01:35:24;99922.31;;;21.68;63.69
73700;BME280;62005;50.082;8.988;2022-08-19T01:37:58;99897.03;;;21.52;63.46
73700;BME280;62005;50.082;8.988;2022-08-19T01:40:29;99920.09;;;21.70;63.35
73700;BME280;62005;50.082;8.988;2022-08-19T01:42:56;99898.75;;;21.62;63.21
73700;BME280;62005;50.082;8.988;2022-08-19T01:45:24;99919.47;;;21.73;63.25
73700;BME280;62005;50.082;8.988;2022-08-19T01:47:50;99910.28;;;21.64;62.99
73700;BME280;62005;50.082;8.988;2022-08-19T01:50:16;99928.81;;;21.72;63.22
73700;BME280;62005;50.082;8.988;2022-08-19T01:52:43;99906.44;;;21.65;63.01
73700;BME280;62005;50.082;8.988;2022-08-19T01:55:12;99922.22;;;21.73;63.54
73700;BME280;62005;50.082;8.988;2022-08-19T01:57:39;99926.59;;;21.74;63.37
73700;BME280;62005;50.082;8.988;2022-08-19T02:00:10;99914.28;;;21.71;62.93
73700;BME280;62005;50.082;8.988;2022-08-19T02:02:35;99912.94;;;21.69;63.27
73700;BME280;62005;50.082;8.988;2022-08-19T02:05:01;99908.66;;;21.63;62.83
73700;BME280;62005;50.082;8.988;2022-08-19T02:07:26;99919.25;;;21.69;63.11
73700;BME280;62005;50.082;8.988;2022-08-19T02:09:53;99921.81;;;21.66;63.15
73700;BME280;62005;50.082;8.988;2022-08-19T02:12:20;99912.63;;;21.57;63.23
73700;BME280;62005;50.082;8.988;2022-08-19T02:14:46;99923.53;;;21.62;63.13
73700;BME280;62005;50.082;8.988;2022-08-19T02:17:11;99939.44;;;21.65;63.38
73700;BME280;62005;50.082;8.988;2022-08-19T02:19:37;99962.25;;;21.65;63.53
73700;BME280;62005;50.082;8.988;2022-08-19T02:22:02;99964.19;;;21.65;63.25
73700;BME280;62005;50.082;8.988;2022-08-19T02:24:27;99939.63;;;21.55;63.22
73700;BME280;62005;50.082;8.988;2022-08-19T02:26:53;99961.44;;;21.65;63.31
73700;BME280;62005;50.082;8.988;2022-08-19T02:29:19;99956.53;;;21.62;63.35
73700;BME280;62005;50.082;8.988;2022-08-19T02:31:44;99935.34;;;21.49;63.67
73700;BME280;62005;50.082;8.988;2022-08-19T02:34:10;99952.78;;;21.58;63.40
73700;BME280;62005;50.082;8.988;2022-08-19T02:36:35;99954.91;;;21.61;63.68
73700;BME280;62005;50.082;8.988;2022-08-19T02:39:00;99965.31;;;21.64;63.80
73700;BME280;62005;50.082;8.988;2022-08-19T02:41:29;99954.09;;;21.60;63.12
73700;BME280;62005;50.082;8.988;2022-08-19T02:43:57;99955.94;;;21.65;63.23
73700;BME280;62005;50.082;8.988;2022-08-19T02:46:27;99950.03;;;21.58;63.12
73700;BME280;62005;50.082;8.988;2022-08-19T02:49:02;99958.19;;;21.63;63.12
73700;BME280;62005;50.082;8.988;2022-08-19T02:51:33;99957.56;;;21.66;63.43
73700;BME280;62005;50.082;8.988;2022-08-19T02:53:59;99971.94;;;21.63;63.38
73700;BME280;62005;50.082;8.988;2022-08-19T02:56:25;99958.91;;;21.55;63.12
73700;BME280;62005;50.082;8.988;2022-08-19T02:58:52;99959.00;;;21.50;64.10
73700;BME280;62005;50.082;8.988;2022-08-19T03:01:30;99962.22;;;21.52;64.24
73700;BME280;62005;50.082;8.988;2022-08-19T03:03:56;99962.06;;;21.48;64.33
73700;BME280;62005;50.082;8.988;2022-08-19T03:06:22;99958.56;;;21.43;64.13
73700;BME280;62005;50.082;8.988;2022-08-19T03:08:48;99960.19;;;21.44;64.31
73700;BME280;62005;50.082;8.988;2022-08-19T03:11:23;99945.53;;;21.35;64.42
73700;BME280;62005;50.082;8.988;2022-08-19T03:13:49;99948.78;;;21.37;64.50
73700;BME280;62005;50.082;8.988;2022-08-19T03:16:16;99971.19;;;21.44;64.67
73700;BME280;62005;50.082;8.988;2022-08-19T03:18:41;99960.81;;;21.41;64.33
73700;BME280;62005;50.082;8.988;2022-08-19T03:21:07;99934.50;;;21.21;64.29
73700;BME280;62005;50.082;8.988;2022-08-19T03:23:32;99969.56;;;21.43;64.77
73700;BME280;62005;50.082;8.988;2022-08-19T03:25:58;99943.47;;;21.27;64.54
73700;BME280;62005;50.082;8.988;2022-08-19T03:28:23;99964.47;;;21.36;64.52
73700;BME280;62005;50.082;8.988;2022-08-19T03:31:17;99966.69;;;21.34;64.84
73700;BME280;62005;50.082;8.988;2022-08-19T03:33:43;99972.19;;;21.34;64.74
73700;BME280;62005;50.082;8.988;2022-08-19T03:36:12;99964.88;;;21.30;65.00
73700;BME280;62005;50.082;8.988;2022-08-19T03:38:40;99959.16;;;21.26;64.53
73700;BME280;62005;50.082;8.988;2022-08-19T03:41:11;99955.06;;;21.24;64.87
73700;BME280;62005;50.082;8.988;2022-08-19T03:43:38;99961.06;;;21.26;64.94
73700;BME280;62005;50.082;8.988;2022-08-19T03:46:06;99955.66;;;21.21;65.10
73700;BME280;62005;50.082;8.988;2022-08-19T03:48:32;99956.28;;;21.18;64.97
73700;BME280;62005;50.082;8.988;2022-08-19T03:50:59;99962.91;;;21.17;65.06
73700;BME280;62005;50.082;8.988;2022-08-19T03:53:27;99966.75;;;21.16;65.14
73700;BME280;62005;50.082;8.988;2022-08-19T03:55:53;99957.88;;;21.05;65.47
73700;BME280;62005;50.082;8.988;2022-08-19T03:58:19;99960.63;;;21.05;65.56
73700;BME280;62005;50.082;8.988;2022-08-19T04:00:44;99964.69;;;21.08;65.76
73700;BME280;62005;50.082;8.988;2022-08-19T04:03:10;99976.22;;;21.10;65.60
73700;BME280;62005;50.082;8.988;2022-08-19T04:05:35;99974.59;;;21.09;66.02
73700;BME280;62005;50.082;8.988;2022-08-19T04:08:01;99948.44;;;20.93;65.85
73700;BME280;62005;50.082;8.988;2022-08-19T04:10:27;99977.34;;;21.09;65.94
73700;BME280;62005;50.082;8.988;2022-08-19T04:12:53;99971.31;;;21.07;65.65
73700;BME280;62005;50.082;8.988;2022-08-19T04:15:18;99976.81;;;21.07;65.66
73700;BME280;62005;50.082;8.988;2022-08-19T04:17:44;99968.66;;;21.02;65.78
73700;BME280;62005;50.082;8.988;2022-08-19T04:20:09;99976.38;;;21.00;65.69
73700;BME280;62005;50.082;8.988;2022-08-19T04:22:35;99969.97;;;21.04;65.86
73700;BME280;62005;50.082;8.988;2022-08-19T04:25:00;99977.34;;;21.09;66.01
73700;BME280;62005;50.082;8.988;2022-08-19T04:27:25;99977.34;;;21.09;65.91
73700;BME280;62005;50.082;8.988;2022-08-19T04:29:51;99981.72;;;21.10;66.29
73700;BME280;62005;50.082;8.988;2022-08-19T04:32:17;99976.81;;;21.07;66.00
73700;BME280;62005;50.082;8.988;2022-08-19T04:34:42;99980.09;;;21.09;65.82
73700;BME280;62005;50.082;8.988;2022-08-19T04:37:08;99962.94;;;20.98;66.06
73700;BME280;62005;50.082;8.988;2022-08-19T04:39:37;99981.72;;;21.10;65.72
73700;BME280;62005;50.082;8.988;2022-08-19T04:42:21;99975.16;;;21.06;66.20
73700;BME280;62005;50.082;8.988;2022-08-19T04:45:11;99969.69;;;21.06;66.44
73700;BME280;62005;50.082;8.988;2022-08-19T04:47:37;99970.09;;;21.13;66.07
73700;BME280;62005;50.082;8.988;2022-08-19T04:50:07;99902.06;;;20.72;66.13
73700;BME280;62005;50.082;8.988;2022-08-19T04:52:36;99935.22;;;20.95;66.03
73700;BME280;62005;50.082;8.988;2022-08-19T04:55:01;99922.16;;;20.87;66.03
73700;BME280;62005;50.082;8.988;2022-08-19T04:57:27;99945.03;;;21.01;66.19
73700;BME280;62005;50.082;8.988;2022-08-19T04:59:56;99976.03;;;21.20;66.23
73700;BME280;62005;50.082;8.988;2022-08-19T05:02:22;99973.28;;;21.20;66.47
73700;BME280;62005;50.082;8.988;2022-08-19T05:04:56;99966.25;;;21.14;66.05
73700;BME280;62005;50.082;8.988;2022-08-19T05:07:22;99989.47;;;21.21;66.17
73700;BME280;62005;50.082;8.988;2022-08-19T05:09:47;99988.66;;;21.21;66.04
73700;BME280;62005;50.082;8.988;2022-08-19T05:12:13;99973.78;;;21.08;66.32
73700;BME280;62005;50.082;8.988;2022-08-19T05:14:38;100005.97;;;21.21;66.16
73700;BME280;62005;50.082;8.988;2022-08-19T05:17:03;100010.66;;;21.21;66.44
73700;BME280;62005;50.082;8.988;2022-08-19T05:19:29;99942.91;;;20.79;65.88
73700;BME280;62005;50.082;8.988;2022-08-19T05:22:13;100016.16;;;21.21;66.32
73700;BME280;62005;50.082;8.988;2022-08-19T05:24:56;99997.06;;;21.11;66.20
73700;BME280;62005;50.082;8.988;2022-08-19T05:27:22;100008.81;;;21.16;66.36
73700;BME280;62005;50.082;8.988;2022-08-19T05:29:47;100011.78;;;21.20;66.60
73700;BME280;62005;50.082;8.988;2022-08-19T05:32:12;99998.22;;;21.10;66.76
73700;BME280;62005;50.082;8.988;2022-08-19T05:34:38;100011.88;;;21.15;66.70
73700;BME280;62005;50.082;8.988;2022-08-19T05:37:04;99998.22;;;21.10;66.63
73700;BME280;62005;50.082;8.988;2022-08-19T05:39:32;100026.06;;;21.22;66.52
73700;BME280;62005;50.082;8.988;2022-08-19T05:42:01;100013.50;;;21.16;66.54
73700;BME280;62005;50.082;8.988;2022-08-19T05:44:30;100007.69;;;21.17;66.71
73700;BME280;62005;50.082;8.988;2022-08-19T05:46:57;100010.66;;;21.21;66.78
73700;BME280;62005;50.082;8.988;2022-08-19T05:49:23;100015.75;;;21.27;66.74
73700;BME280;62005;50.082;8.988;2022-08-19T05:51:50;100023.22;;;21.27;66.78
73700;BME280;62005;50.082;8.988;2022-08-19T05:54:17;100029.03;;;21.25;67.38
73700;BME280;62005;50.082;8.988;2022-08-19T05:56:43;100012.31;;;21.22;66.86
73700;BME280;62005;50.082;8.988;2022-08-19T05:59:10;100014.75;;;21.23;66.54
73700;BME280;62005;50.082;8.988;2022-08-19T06:01:41;100014.53;;;21.20;67.00
73700;BME280;62005;50.082;8.988;2022-08-19T06:04:07;100003.69;;;21.10;67.02
73700;BME280;62005;50.082;8.988;2022-08-19T06:06:34;100035.75;;;21.33;66.73
73700;BME280;62005;50.082;8.988;2022-08-19T06:09:04;100052.25;;;21.33;67.30
73700;BME280;62005;50.082;8.988;2022-08-19T06:11:41;100051.66;;;21.36;67.13
73700;BME280;62005;50.082;8.988;2022-08-19T06:14:14;100054.91;;;21.38;66.69
73700;BME280;62005;50.082;8.988;2022-08-19T06:16:41;100047.78;;;21.37;66.83
73700;BME280;62005;50.082;8.988;2022-08-19T06:19:13;100063.69;;;21.40;66.95
73700;BME280;62005;50.082;8.988;2022-08-19T06:21:42;100068.59;;;21.43;66.89
73700;BME280;62005;50.082;8.988;2022-08-19T06:24:10;100063.91;;;21.43;67.24
73700;BME280;62005;50.082;8.988;2022-08-19T06:26:37;100058.78;;;21.37;66.72
73700;BME280;62005;50.082;8.988;2022-08-19T06:29:05;100071.75;;;21.50;66.14
73700;BME280;62005;50.082;8.988;2022-08-19T06:31:33;100066.75;;;21.52;66.48
73700;BME280;62005;50.082;8.988;2022-08-19T06:34:02;100067.38;;;21.49;66.48
73700;BME280;62005;50.082;8.988;2022-08-19T06:36:32;100079.31;;;21.58;66.38
73700;BME280;62005;50.082;8.988;2022-08-19T06:39:11;100081.47;;;21.61;66.57
73700;BME280;62005;50.082;8.988;2022-08-19T06:41:40;100086.34;;;21.64;66.25
73700;BME280;62005;50.082;8.988;2022-08-19T06:44:07;100088.19;;;21.68;66.00
73700;BME280;62005;50.082;8.988;2022-08-19T06:46:32;100086.78;;;21.71;66.47
73700;BME280;62005;50.082;8.988;2022-08-19T06:48:58;100078.44;;;21.76;65.77
73700;BME280;62005;50.082;8.988;2022-08-19T06:51:25;100072.41;;;21.74;65.98
73700;BME280;62005;50.082;8.988;2022-08-19T06:53:52;100087.16;;;21.83;66.05
73700;BME280;62005;50.082;8.988;2022-08-19T06:56:24;100073.56;;;21.73;66.09
73700;BME280;62005;50.082;8.988;2022-08-19T06:58:55;100082.31;;;21.75;65.56
73700;BME280;62005;50.082;8.988;2022-08-19T07:01:20;100097.03;;;21.84;65.78
73700;BME280;62005;50.082;8.988;2022-08-19T07:03:46;100092.34;;;21.84;65.87
73700;BME280;62005;50.082;8.988;2022-08-19T07:06:14;100096.63;;;21.90;65.84
73700;BME280;62005;50.082;8.988;2022-08-19T07:08:43;100092.97;;;21.95;65.52
73700;BME280;62005;50.082;8.988;2022-08-19T07:11:11;100106.63;;;22.00;65.63
73700;BME280;62005;50.082;8.988;2022-08-19T07:13:38;100097.88;;;21.98;65.50
73700;BME280;62005;50.082;8.988;2022-08-19T07:16:10;100106.53;;;22.05;65.45
73700;BME280;62005;50.082;8.988;2022-08-19T07:18:36;100105.22;;;22.03;65.60
73700;BME280;62005;50.082;8.988;2022-08-19T07:21:10;100092.38;;;21.98;65.64
73700;BME280;62005;50.082;8.988;2022-08-19T07:23:36;100100.16;;;22.10;65.61
73700;BME280;62005;50.082;8.988;2022-08-19T07:26:11;100107.19;;;22.16;65.21
73700;BME280;62005;50.082;8.988;2022-08-19T07:28:37;100104.84;;;22.23;65.00
73700;BME280;62005;50.082;8.988;2022-08-19T07:31:07;100082.59;;;22.19;65.17
73700;BME280;62005;50.082;8.988;2022-08-19T07:33:33;100107.56;;;22.36;65.04
73700;BME280;62005;50.082;8.988;2022-08-19T07:36:06;100092.19;;;22.35;64.94
73700;BME280;62005;50.082;8.988;2022-08-19T07:38:33;100108.50;;;22.45;64.71
73700;BME280;62005;50.082;8.988;2022-08-19T07:40:59;100113.00;;;22.55;64.61
73700;BME280;62005;50.082;8.988;2022-08-19T07:43:26;100105.47;;;22.60;64.62
73700;BME280;62005;50.082;8.988;2022-08-19T07:45:53;100073.81;;;22.44;64.40
73700;BME280;62005;50.082;8.988;2022-08-19T07:48:22;100081.59;;;22.56;64.06
73700;BME280;62005;50.082;8.988;2022-08-19T07:50:50;100103.00;;;22.72;64.10
73700;BME280;62005;50.082;8.988;2022-08-19T07:53:15;100107.25;;;22.78;63.84
73700;BME280;62005;50.082;8.988;2022-08-19T07:55:41;100089.34;;;22.67;63.42
73700;BME280;62005;50.082;8.988;2022-08-19T07:58:07;100124.22;;;22.85;63.21
73700;BME280;62005;50.082;8.988;2022-08-19T08:00:33;100130.09;;;22.92;63.15
73700;BME280;62005;50.082;8.988;2022-08-19T08:02:58;100115.44;;;22.83;62.71
73700;BME280;62005;50.082;8.988;2022-08-19T08:05:24;100096.88;;;22.75;62.73
73700;BME280;62005;50.082;8.988;2022-08-19T08:08:08;100113.38;;;22.89;62.68
73700;BME280;62005;50.082;8.988;2022-08-19T08:10:52;100134.78;;;23.05;62.47
73700;BME280;62005;50.082;8.988;2022-08-19T08:13:18;100131.50;;;23.03;62.42
73700;BME280;62005;50.082;8.988;2022-08-19T08:15:44;100121.72;;;22.97;62.50
73700;BME280;62005;50.082;8.988;2022-08-19T08:18:19;100124.88;;;23.04;62.41
73700;BME280;62005;50.082;8.988;2022-08-19T08:20:45;100122.72;;;23.01;62.20
73700;BME280;62005;50.082;8.988;2022-08-19T08:23:11;100126.41;;;23.10;62.08
73700;BME280;62005;50.082;8.988;2022-08-19T08:25:54;100122.69;;;23.15;61.89
73700;BME280;62005;50.082;8.988;2022-08-19T08:28:20;100079.03;;;22.95;62.08
73700;BME280;62005;50.082;8.988;2022-08-19T08:30:47;100079.75;;;23.00;61.61
73700;BME280;62005;50.082;8.988;2022-08-19T08:33:20;100090.41;;;23.15;60.99
73700;BME280;62005;50.082;8.988;2022-08-19T08:35:46;100125.06;;;23.44;60.68
73700;BME280;62005;50.082;8.988;2022-08-19T08:38:13;100092.69;;;23.36;61.16
73700;BME280;62005;50.082;8.988;2022-08-19T08:45:55;100121.66;;;23.91;59.15
73700;BME280;62005;50.082;8.988;2022-08-19T08:48:32;100126.47;;;24.07;58.11
73700;BME280;62005;50.082;8.988;2022-08-19T08:51:03;100079.59;;;23.94;57.41
73700;BME280;62005;50.082;8.988;2022-08-19T08:53:30;100057.13;;;23.87;57.49
73700;BME280;62005;50.082;8.988;2022-08-19T08:55:58;100102.22;;;24.35;56.83
73700;BME280;62005;50.082;8.988;2022-08-19T09:01:36;100115.31;;;24.60;55.86
73700;BME280;62005;50.082;8.988;2022-08-19T09:04:06;100082.44;;;24.50;55.85
73700;BME280;62005;50.082;8.988;2022-08-19T09:16:45;100090.34;;;25.16;53.64
73700;BME280;62005;50.082;8.988;2022-08-19T09:19:12;100107.97;;;25.37;54.25
73700;BME280;62005;50.082;8.988;2022-08-19T09:21:37;100114.94;;;25.60;53.29
73700;BME280;62005;50.082;8.988;2022-08-19T09:24:25;100122.38;;;25.86;51.69
73700;BME280;62005;50.082;8.988;2022-08-19T09:26:51;100050.75;;;25.58;51.89
73700;BME280;62005;50.082;8.988;2022-08-19T09:29:18;100117.59;;;26.12;50.76
73700;BME280;62005;50.082;8.988;2022-08-19T09:31:44;100075.88;;;26.08;50.90
73700;BME280;62005;50.082;8.988;2022-08-19T09:34:10;100072.22;;;26.25;50.94
73700;BME280;62005;50.082;8.988;2022-08-19T09:36:35;100034.91;;;26.22;50.05
73700;BME280;62005;50.082;8.988;2022-08-19T09:39:04;100062.59;;;26.60;50.87
73700;BME280;62005;50.082;8.988;2022-08-19T09:41:32;100058.44;;;26.74;50.57
73700;BME280;62005;50.082;8.988;2022-08-19T09:44:10;100067.19;;;26.85;48.72
73700;BME280;62005;50.082;8.988;2022-08-19T09:46:38;100064.19;;;26.90;49.06
73700;BME280;62005;50.082;8.988;2022-08-19T09:49:04;100081.72;;;27.23;50.58
73700;BME280;62005;50.082;8.988;2022-08-19T09:51:32;100102.44;;;27.46;48.79
73700;BME280;62005;50.082;8.988;2022-08-19T09:54:02;100084.84;;;27.42;47.29
73700;BME280;62005;50.082;8.988;2022-08-19T09:56:28;100109.66;;;27.59;46.75
73700;BME280;62005;50.082;8.988;2022-08-19T09:58:54;100103.66;;;27.57;46.41
73700;BME280;62005;50.082;8.988;2022-08-19T10:01:23;100067.28;;;27.50;46.98
73700;BME280;62005;50.082;8.988;2022-08-19T10:03:52;100065.59;;;27.58;46.06
73700;BME280;62005;50.082;8.988;2022-08-19T10:06:22;100043.34;;;27.58;46.92
73700;BME280;62005;50.082;8.988;2022-08-19T10:08:49;100059.50;;;27.88;46.40
73700;BME280;62005;50.082;8.988;2022-08-19T10:11:15;100101.41;;;28.28;47.42
73700;BME280;62005;50.082;8.988;2022-08-19T10:13:43;100064.44;;;28.15;46.01
73700;BME280;62005;50.082;8.988;2022-08-19T10:16:15;100069.66;;;28.29;44.92
73700;BME280;62005;50.082;8.988;2022-08-19T10:18:46;100094.13;;;28.48;45.63
73700;BME280;62005;50.082;8.988;2022-08-19T10:21:16;100066.53;;;28.31;45.57
73700;BME280;62005;50.082;8.988;2022-08-19T10:23:45;100059.09;;;28.47;45.78
73700;BME280;62005;50.082;8.988;2022-08-19T10:26:14;100082.06;;;28.68;45.08
73700;BME280;62005;50.082;8.988;2022-08-19T10:28:40;100069.56;;;28.74;45.49
73700;BME280;62005;50.082;8.988;2022-08-19T10:31:11;100025.06;;;28.50;44.36
73700;BME280;62005;50.082;8.988;2022-08-19T10:33:39;100036.66;;;28.64;44.30
73700;BME280;62005;50.082;8.988;2022-08-19T10:36:12;100055.81;;;28.93;43.95
73700;BME280;62005;50.082;8.988;2022-08-19T10:38:49;100034.25;;;28.90;43.11
73700;BME280;62005;50.082;8.988;2022-08-19T10:41:18;100069.72;;;29.05;44.18
73700;BME280;62005;50.082;8.988;2022-08-19T10:43:44;100011.38;;;28.69;45.15
73700;BME280;62005;50.082;8.988;2022-08-19T10:46:13;100017.56;;;28.90;44.54
73700;BME280;62005;50.082;8.988;2022-08-19T10:48:41;100027.50;;;29.03;44.57
73700;BME280;62005;50.082;8.988;2022-08-19T10:51:09;100007.25;;;28.90;43.12
73700;BME280;62005;50.082;8.988;2022-08-19T10:53:54;100058.50;;;29.29;43.59
73700;BME280;62005;50.082;8.988;2022-08-19T10:56:21;100038.97;;;29.13;43.40
73700;BME280;62005;50.082;8.988;2022-08-19T10:59:06;100027.94;;;29.17;44.30
73700;BME280;62005;50.082;8.988;2022-08-19T11:01:32;100026.78;;;29.18;43.13
73700;BME280;62005;50.082;8.988;2022-08-19T11:04:03;100014.91;;;29.21;43.20
73700;BME280;62005;50.082;8.988;2022-08-19T11:06:33;99996.13;;;29.18;42.81
73700;BME280;62005;50.082;8.988;2022-08-19T11:08:58;99990.06;;;29.28;43.77
73700;BME280;62005;50.082;8.988;2022-08-19T11:11:26;100013.38;;;29.51;42.66
73700;BME280;62005;50.082;8.988;2022-08-19T11:13:53;100018.59;;;29.53;43.78
73700;BME280;62005;50.082;8.988;2022-08-19T11:16:22;99999.97;;;29.41;43.96
73700;BME280;62005;50.082;8.988;2022-08-19T11:18:51;99982.63;;;29.32;42.34
73700;BME280;62005;50.082;8.988;2022-08-19T11:21:20;99999.00;;;29.49;41.49
73700;BME280;62005;50.082;8.988;2022-08-19T11:23:48;99986.50;;;29.43;42.31
73700;BME280;62005;50.082;8.988;2022-08-19T11:26:16;100014.78;;;29.73;41.84
73700;BME280;62005;50.082;8.988;2022-08-19T11:28:42;100018.56;;;29.80;42.88
73700;BME280;62005;50.082;8.988;2022-08-19T11:31:17;100005.22;;;29.58;40.05
73700;BME280;62005;50.082;8.988;2022-08-19T11:33:42;100009.56;;;29.71;40.91
73700;BME280;62005;50.082;8.988;2022-08-19T11:36:08;100014.41;;;29.74;39.83
73700;BME280;62005;50.082;8.988;2022-08-19T11:38:35;100003.72;;;29.76;40.36
73700;BME280;62005;50.082;8.988;2022-08-19T11:41:05;99983.31;;;29.72;38.96
73700;BME280;62005;50.082;8.988;2022-08-19T11:43:33;100002.00;;;29.87;38.33
73700;BME280;62005;50.082;8.988;2022-08-19T11:45:58;99993.19;;;29.85;40.49
73700;BME280;62005;50.082;8.988;2022-08-19T11:48:24;99990.31;;;29.97;40.08
73700;BME280;62005;50.082;8.988;2022-08-19T11:50:52;100005.59;;;30.03;40.79
73700;BME280;62005;50.082;8.988;2022-08-19T11:53:20;99984.19;;;30.07;40.84
73700;BME280;62005;50.082;8.988;2022-08-19T11:55:50;99993.25;;;30.20;41.02
73700;BME280;62005;50.082;8.988;2022-08-19T11:58:17;99985.25;;;30.18;40.32
73700;BME280;62005;50.082;8.988;2022-08-19T12:00:43;99992.91;;;30.21;38.93
73700;BME280;62005;50.082;8.988;2022-08-19T12:03:12;99979.91;;;29.94;39.23
73700;BME280;62005;50.082;8.988;2022-08-19T12:05:38;99994.09;;;29.89;38.33
73700;BME280;62005;50.082;8.988;2022-08-19T12:08:05;99958.38;;;29.64;39.17
73700;BME280;62005;50.082;8.988;2022-08-19T12:10:31;99997.34;;;29.91;38.65
73700;BME280;62005;50.082;8.988;2022-08-19T12:12:56;99965.69;;;29.84;38.26
73700;BME280;62005;50.082;8.988;2022-08-19T12:15:22;99970.34;;;29.95;38.93
73700;BME280;62005;50.082;8.988;2022-08-19T12:17:48;99971.09;;;29.92;37.20
73700;BME280;62005;50.082;8.988;2022-08-19T12:20:17;99950.22;;;29.86;38.46
73700;BME280;62005;50.082;8.988;2022-08-19T12:22:42;99943.03;;;29.85;36.65
73700;BME280;62005;50.082;8.988;2022-08-19T12:25:11;99931.78;;;29.82;37.56
73700;BME280;62005;50.082;8.988;2022-08-19T12:27:38;99973.78;;;30.04;38.28
73700;BME280;62005;50.082;8.988;2022-08-19T12:30:05;99978.63;;;30.07;37.91
73700;BME280;62005;50.082;8.988;2022-08-19T12:32:31;99978.44;;;30.00;38.03
73700;BME280;62005;50.082;8.988;2022-08-19T12:34:56;99953.47;;;29.88;37.61
73700;BME280;62005;50.082;8.988;2022-08-19T12:37:21;99953.91;;;30.06;37.14
73700;BME280;62005;50.082;8.988;2022-08-19T12:39:48;99966.09;;;30.17;37.38
73700;BME280;62005;50.082;8.988;2022-08-19T12:42:13;99977.34;;;30.20;36.33
73700;BME280;62005;50.082;8.988;2022-08-19T12:44:40;99968.44;;;30.15;37.36
73700;BME280;62005;50.082;8.988;2022-08-19T12:47:06;99947.69;;;29.97;37.03
73700;BME280;62005;50.082;8.988;2022-08-19T12:49:32;99971.00;;;30.04;35.79
73700;BME280;62005;50.082;8.988;2022-08-19T12:52:00;99913.91;;;29.67;37.19
73700;BME280;62005;50.082;8.988;2022-08-19T12:54:27;99948.06;;;29.95;37.28
73700;BME280;62005;50.082;8.988;2022-08-19T12:56:52;99956.13;;;30.00;38.46
73700;BME280;62005;50.082;8.988;2022-08-19T12:59:19;99965.13;;;30.09;37.04
73700;BME280;62005;50.082;8.988;2022-08-19T13:01:45;99956.31;;;30.07;37.10
73700;BME280;62005;50.082;8.988;2022-08-19T13:04:11;99953.34;;;30.16;37.00
73700;BME280;62005;50.082;8.988;2022-08-19T13:06:40;99951.38;;;30.16;35.55
73700;BME280;62005;50.082;8.988;2022-08-19T13:09:10;99948.13;;;30.14;35.29
73700;BME280;62005;50.082;8.988;2022-08-19T13:11:37;99970.34;;;30.26;35.95
73700;BME280;62005;50.082;8.988;2022-08-19T13:14:05;99906.50;;;29.90;35.52
73700;BME280;62005;50.082;8.988;2022-08-19T13:16:41;99923.69;;;29.92;34.74
73700;BME280;62005;50.082;8.988;2022-08-19T13:19:21;99950.75;;;30.07;35.70